createdAt,value
2018-12-29T00:02:08.325Z,38.47
2018-12-29T00:04:37.821Z,38.27
2018-12-29T00:07:05.936Z,36.47
2018-12-29T00:09:33.005Z,36.77
2018-12-29T00:12:00.557Z,38.37
2018-12-29T00:14:28.118Z,37.17
2018-12-29T00:16:56.468Z,36.73
2018-12-29T00:19:24.038Z,37.17
2018-12-29T00:21:52.393Z,38.97
2018-12-29T00:24:19.945Z,35.27
2018-12-29T00:26:47.524Z,36.60
2018-12-29T00:29:15.104Z,37.70
2018-12-29T00:31:42.663Z,36.73
2018-12-29T00:34:10.246Z,38.07
2018-12-29T00:36:37.829Z,35.20
2018-12-29T00:39:05.407Z,35.13
2018-12-29T00:41:32.972Z,36.07
2018-12-29T00:44:00.561Z,35.70
2018-12-29T00:46:28.110Z,36.77
2018-12-29T00:48:56.461Z,35.20
2018-12-29T00:51:24.017Z,36.13
2018-12-29T00:53:51.598Z,37.17
2018-12-29T00:56:19.179Z,37.03
2018-12-29T00:58:46.845Z,35.63
2018-12-29T01:01:14.424Z,37.83
2018-12-29T01:03:41.987Z,34.80
2018-12-29T01:06:09.566Z,35.90
2018-12-29T01:08:37.149Z,36.37
2018-12-29T01:11:04.702Z,39.00
2018-12-29T01:13:33.283Z,33.47
2018-12-29T01:16:00.870Z,35.20
2018-12-29T01:18:28.452Z,33.90
2018-12-29T01:20:56.006Z,39.23
2018-12-29T01:23:23.564Z,39.73
2018-12-29T01:25:51.148Z,37.80
2018-12-29T01:28:18.702Z,38.83
2018-12-29T01:30:46.281Z,36.67
2018-12-29T01:33:14.597Z,37.73
2018-12-29T01:35:42.182Z,36.57
2018-12-29T01:38:09.733Z,38.60
2018-12-29T01:40:37.287Z,39.30
2018-12-29T01:43:04.865Z,38.30
2018-12-29T01:45:32.419Z,37.63
2018-12-29T01:48:00.003Z,36.77
2018-12-29T01:50:28.338Z,39.40
2018-12-29T01:52:55.918Z,36.33
2018-12-29T01:55:23.954Z,35.47
2018-12-29T01:57:51.553Z,35.73
2018-12-29T02:00:19.134Z,40.33
2018-12-29T02:02:47.480Z,36.93
2018-12-29T02:05:16.231Z,39.50
2018-12-29T02:07:43.832Z,38.30
2018-12-29T02:10:13.232Z,37.90
2018-12-29T02:12:40.943Z,36.67
2018-12-29T02:15:08.532Z,34.20
2018-12-29T02:17:36.110Z,34.23
2018-12-29T02:20:04.425Z,37.30
2018-12-29T02:22:31.977Z,36.83
2018-12-29T02:24:59.558Z,35.27
2018-12-29T02:27:27.212Z,35.30
2018-12-29T02:29:54.878Z,36.40
2018-12-29T02:32:22.431Z,36.83
2018-12-29T02:34:50.110Z,37.47
2018-12-29T02:37:17.689Z,35.10
2018-12-29T02:39:45.266Z,35.40
2018-12-29T02:42:12.814Z,33.63
2018-12-29T02:44:40.366Z,31.43
2018-12-29T02:47:07.947Z,32.03
2018-12-29T02:49:35.512Z,33.83
2018-12-29T02:52:03.103Z,33.90
2018-12-29T02:54:30.666Z,35.13
2018-12-29T02:56:58.227Z,33.57
2018-12-29T02:59:25.883Z,34.03
2018-12-29T03:01:53.404Z,34.90
2018-12-29T03:04:20.983Z,35.30
2018-12-29T03:06:48.632Z,35.60
2018-12-29T03:09:17.177Z,35.07
2018-12-29T03:11:44.728Z,35.53
2018-12-29T03:14:13.041Z,34.57
2018-12-29T03:16:41.871Z,35.97
2018-12-29T03:19:09.421Z,35.93
2018-12-29T03:21:36.993Z,36.10
2018-12-29T03:24:04.575Z,34.37
2018-12-29T03:26:32.897Z,33.83
2018-12-29T03:29:00.472Z,22.70
2018-12-29T03:31:28.028Z,26.00
2018-12-29T03:33:55.647Z,22.93
2018-12-29T03:36:23.313Z,22.80
2018-12-29T03:38:50.892Z,27.60
2018-12-29T03:41:18.446Z,29.83
2018-12-29T03:43:46.029Z,30.80
2018-12-29T03:46:13.578Z,29.30
2018-12-29T03:48:41.135Z,24.33
2018-12-29T03:51:08.751Z,22.70
2018-12-29T03:53:36.297Z,22.83
2018-12-29T03:56:03.894Z,26.27
2018-12-29T03:58:31.925Z,28.23
2018-12-29T04:00:59.557Z,29.77
2018-12-29T04:03:27.109Z,31.20
2018-12-29T04:05:54.690Z,31.10
2018-12-29T04:08:23.015Z,29.73
2018-12-29T04:10:50.615Z,27.67
2018-12-29T04:13:18.192Z,31.20
2018-12-29T04:15:45.759Z,29.80
2018-12-29T04:18:13.333Z,29.33
2018-12-29T04:20:40.899Z,29.63
2018-12-29T04:23:08.476Z,28.17
2018-12-29T04:25:36.041Z,28.77
2018-12-29T04:28:04.060Z,28.80
2018-12-29T04:30:32.636Z,26.73
2018-12-29T04:33:00.180Z,27.10
2018-12-29T04:35:27.762Z,27.87
2018-12-29T04:37:55.322Z,26.87
2018-12-29T04:40:22.896Z,28.00
2018-12-29T04:42:50.441Z,25.77
2018-12-29T04:45:18.012Z,24.00
2018-12-29T04:47:45.579Z,23.90
2018-12-29T04:50:13.124Z,23.87
2018-12-29T04:52:40.701Z,24.80
2018-12-29T04:55:08.264Z,20.70
2018-12-29T04:57:35.841Z,21.33
2018-12-29T05:00:04.160Z,21.17
2018-12-29T05:02:31.699Z,20.60
2018-12-29T05:04:59.272Z,22.00
2018-12-29T05:07:26.842Z,20.37
2018-12-29T05:09:54.417Z,21.67
2018-12-29T05:12:21.955Z,21.23
2018-12-29T05:14:49.521Z,20.30
2018-12-29T05:17:17.088Z,21.87
2018-12-29T05:19:44.660Z,20.63
2018-12-29T05:22:13.716Z,21.70
2018-12-29T05:24:41.295Z,22.20
2018-12-29T05:27:08.837Z,22.27
2018-12-29T05:29:36.411Z,21.17
2018-12-29T05:32:03.952Z,23.00
2018-12-29T05:34:31.612Z,23.77
2018-12-29T05:36:59.153Z,23.67
2018-12-29T05:39:26.721Z,22.80
2018-12-29T05:41:54.301Z,22.80
2018-12-29T05:44:21.876Z,22.63
2018-12-29T05:46:49.452Z,23.70
2018-12-29T05:49:16.996Z,24.10
2018-12-29T05:51:44.598Z,24.33
2018-12-29T05:54:12.163Z,25.40
2018-12-29T05:56:39.719Z,23.97
2018-12-29T05:59:07.268Z,24.33
2018-12-29T06:01:34.836Z,33.00
2018-12-29T06:04:02.383Z,22.80
2018-12-29T06:06:29.957Z,24.03
2018-12-29T06:08:57.542Z,23.07
2018-12-29T06:11:25.090Z,24.33
2018-12-29T06:13:52.670Z,23.50
2018-12-29T06:16:27.485Z,23.47
2018-12-29T06:18:47.847Z,21.90
2018-12-29T06:21:15.448Z,22.67
2018-12-29T06:23:42.983Z,25.60
2018-12-29T06:26:10.526Z,22.77
2018-12-29T06:28:38.103Z,23.30
2018-12-29T06:31:05.677Z,29.53
2018-12-29T06:33:33.253Z,29.30
2018-12-29T06:36:00.793Z,24.90
2018-12-29T06:38:28.372Z,22.37
2018-12-29T06:40:56.064Z,22.00
2018-12-29T06:43:24.686Z,22.20
2018-12-29T06:45:52.236Z,20.83
2018-12-29T06:48:19.812Z,21.93
2018-12-29T06:50:47.357Z,23.53
2018-12-29T06:53:14.932Z,37.30
2018-12-29T06:55:42.472Z,29.03
2018-12-29T06:58:10.049Z,23.80
2018-12-29T07:00:38.388Z,25.63
2018-12-29T07:03:05.936Z,31.00
2018-12-29T07:05:33.509Z,21.27
2018-12-29T07:08:01.057Z,22.90
2018-12-29T07:10:28.984Z,22.97
2018-12-29T07:12:56.526Z,22.67
2018-12-29T07:15:24.095Z,22.10
2018-12-29T07:17:51.667Z,24.50
2018-12-29T07:20:19.215Z,23.10
2018-12-29T07:22:46.787Z,23.10
2018-12-29T07:25:14.364Z,24.27
2018-12-29T07:27:41.936Z,23.23
2018-12-29T07:30:09.521Z,22.37
2018-12-29T07:32:37.100Z,23.20
2018-12-29T07:35:04.688Z,22.50
2018-12-29T07:37:32.324Z,21.83
2018-12-29T07:39:59.902Z,21.27
2018-12-29T07:42:27.449Z,21.50
2018-12-29T07:44:55.028Z,21.30
2018-12-29T07:47:22.565Z,21.83
2018-12-29T07:49:50.107Z,22.27
2018-12-29T07:52:17.684Z,21.57
2018-12-29T07:54:45.234Z,22.10
2018-12-29T07:57:12.808Z,21.70
2018-12-29T07:59:40.355Z,22.70
2018-12-29T08:02:08.909Z,23.20
2018-12-29T08:04:36.452Z,22.30
2018-12-29T08:07:04.025Z,26.23
2018-12-29T08:09:31.573Z,31.43
2018-12-29T08:11:59.914Z,28.50
2018-12-29T08:14:27.467Z,29.50
2018-12-29T08:16:56.934Z,28.53
2018-12-29T08:19:23.836Z,29.17
2018-12-29T08:21:51.383Z,30.33
2018-12-29T08:24:18.958Z,27.53
2018-12-29T08:26:46.510Z,27.10
2018-12-29T08:29:14.848Z,27.10
2018-12-29T08:31:42.697Z,25.43
2018-12-29T08:34:10.302Z,25.30
2018-12-29T08:36:37.857Z,24.53
2018-12-29T08:39:05.431Z,26.50
2018-12-29T08:41:32.999Z,26.10
2018-12-29T08:44:00.569Z,36.43
2018-12-29T08:46:28.121Z,28.10
2018-12-29T08:48:55.716Z,23.43
2018-12-29T08:51:23.261Z,23.07
2018-12-29T08:53:50.828Z,40.10
2018-12-29T08:56:20.314Z,25.27
2018-12-29T08:58:47.856Z,22.90
2018-12-29T09:01:15.396Z,23.00
2018-12-29T09:03:42.970Z,22.77
2018-12-29T09:06:10.536Z,23.47
2018-12-29T09:08:38.108Z,52.53
2018-12-29T09:11:05.655Z,42.70
2018-12-29T09:13:33.231Z,26.20
2018-12-29T09:16:00.814Z,22.37
2018-12-29T09:18:28.396Z,51.27
2018-12-29T09:20:55.943Z,23.90
2018-12-29T09:23:23.488Z,23.73
2018-12-29T09:25:51.064Z,41.57
2018-12-29T09:28:18.608Z,34.07
2018-12-29T09:30:47.164Z,28.53
2018-12-29T09:33:14.747Z,20.33
2018-12-29T09:35:42.288Z,20.50
2018-12-29T09:38:09.865Z,22.53
2018-12-29T09:40:37.422Z,20.87
2018-12-29T09:43:06.762Z,22.30
2018-12-29T09:45:34.308Z,22.47
2018-12-29T09:48:02.871Z,22.67
2018-12-29T09:50:30.424Z,23.17
2018-12-29T09:52:58.763Z,23.47
2018-12-29T09:55:26.328Z,22.47
2018-12-29T09:57:53.898Z,23.40
2018-12-29T10:00:21.471Z,25.00
2018-12-29T10:02:49.808Z,24.17
2018-12-29T10:05:17.368Z,30.47
2018-12-29T10:07:44.951Z,23.90
2018-12-29T10:10:13.291Z,24.40
2018-12-29T10:12:40.832Z,23.47
2018-12-29T10:15:08.371Z,24.40
2018-12-29T10:17:36.939Z,24.73
2018-12-29T10:20:04.486Z,25.60
2018-12-29T10:22:32.061Z,23.93
2018-12-29T10:25:00.636Z,22.33
2018-12-29T10:27:28.946Z,23.60
2018-12-29T10:29:57.506Z,24.30
2018-12-29T10:32:25.088Z,24.03
2018-12-29T10:34:52.656Z,24.50
2018-12-29T10:37:20.198Z,24.20
2018-12-29T10:39:47.772Z,23.77
2018-12-29T10:42:15.312Z,25.00
2018-12-29T10:44:42.888Z,22.07
2018-12-29T10:47:10.436Z,24.37
2018-12-29T10:49:38.009Z,23.70
2018-12-29T10:52:05.727Z,23.53
2018-12-29T10:54:33.296Z,24.40
2018-12-29T10:57:01.771Z,24.60
2018-12-29T10:59:29.344Z,25.07
2018-12-29T11:01:56.917Z,23.77
2018-12-29T11:04:24.520Z,25.17
2018-12-29T11:06:52.831Z,24.37
2018-12-29T11:09:20.371Z,25.10
2018-12-29T11:11:47.939Z,24.17
2018-12-29T11:14:15.477Z,24.80
2018-12-29T11:16:43.817Z,22.90
2018-12-29T11:19:11.392Z,24.50
2018-12-29T11:21:38.939Z,24.87
2018-12-29T11:24:06.507Z,21.07
2018-12-29T11:26:34.092Z,22.40
2018-12-29T11:29:01.660Z,21.50
2018-12-29T11:31:29.208Z,21.20
2018-12-29T11:33:57.042Z,21.90
2018-12-29T11:36:24.621Z,21.70
2018-12-29T11:38:52.160Z,21.40
2018-12-29T11:41:19.727Z,20.07
2018-12-29T11:43:48.026Z,21.00
2018-12-29T11:46:15.565Z,22.73
2018-12-29T11:48:43.138Z,22.67
2018-12-29T11:51:10.726Z,25.13
2018-12-29T11:53:38.292Z,22.90
2018-12-29T11:56:05.860Z,24.57
2018-12-29T11:58:33.447Z,24.07
2018-12-29T12:01:01.008Z,23.30
2018-12-29T12:03:28.585Z,23.17
2018-12-29T12:05:56.141Z,22.70
2018-12-29T12:08:23.721Z,22.30
2018-12-29T12:10:51.295Z,23.17
2018-12-29T12:13:18.867Z,22.90
2018-12-29T12:15:46.425Z,23.20
2018-12-29T12:18:14.068Z,24.57
2018-12-29T12:20:41.631Z,22.67
2018-12-29T12:23:09.981Z,24.20
2018-12-29T12:25:37.544Z,22.70
2018-12-29T12:28:05.160Z,22.47
2018-12-29T12:30:32.712Z,25.23
2018-12-29T12:33:00.268Z,27.77
2018-12-29T12:35:28.621Z,27.63
2018-12-29T12:37:56.170Z,24.93
2018-12-29T12:40:23.776Z,26.80
2018-12-29T12:42:51.364Z,27.60
2018-12-29T12:45:18.948Z,27.73
2018-12-29T12:47:47.267Z,25.40
2018-12-29T12:50:14.824Z,27.30
2018-12-29T12:52:42.406Z,25.20
2018-12-29T12:55:10.000Z,27.00
2018-12-29T12:57:37.566Z,27.37
2018-12-29T13:00:05.187Z,25.40
2018-12-29T13:02:32.812Z,27.70
2018-12-29T13:05:00.352Z,27.53
2018-12-29T13:07:27.931Z,29.83
2018-12-29T13:09:55.486Z,29.53
2018-12-29T13:12:23.062Z,31.60
2018-12-29T13:14:51.453Z,32.93
2018-12-29T13:17:19.031Z,32.13
2018-12-29T13:19:46.624Z,31.80
2018-12-29T13:22:14.180Z,34.83
2018-12-29T13:24:41.756Z,31.33
2018-12-29T13:27:09.372Z,38.40
2018-12-29T13:29:37.692Z,32.70
2018-12-29T13:32:05.268Z,31.27
2018-12-29T13:34:32.820Z,31.10
2018-12-29T13:37:00.400Z,34.53
2018-12-29T13:39:27.956Z,35.30
2018-12-29T13:41:55.512Z,35.57
2018-12-29T13:44:23.096Z,35.30
2018-12-29T13:46:50.651Z,34.23
2018-12-29T13:49:18.233Z,32.97
2018-12-29T13:51:45.812Z,34.50
2018-12-29T13:54:13.427Z,35.50
2018-12-29T13:56:40.973Z,33.90
2018-12-29T13:59:11.372Z,37.00
2018-12-29T14:01:38.957Z,35.03
2018-12-29T14:04:06.557Z,33.43
2018-12-29T14:06:34.150Z,31.10
2018-12-29T14:09:03.245Z,32.73
2018-12-29T14:11:29.354Z,32.93
2018-12-29T14:13:56.937Z,32.80
2018-12-29T14:16:24.495Z,42.77
2018-12-29T14:18:52.084Z,35.13
2018-12-29T14:21:19.664Z,34.90
2018-12-29T14:23:47.228Z,35.13
2018-12-29T14:26:14.821Z,34.47
2018-12-29T14:28:42.384Z,35.13
2018-12-29T14:31:09.970Z,35.97
2018-12-29T14:33:37.527Z,35.37
2018-12-29T14:36:05.881Z,34.33
2018-12-29T14:38:33.465Z,33.53
2018-12-29T14:41:01.032Z,34.40
2018-12-29T14:43:28.617Z,37.20
2018-12-29T14:45:56.170Z,37.77
2018-12-29T14:48:23.773Z,37.00
2018-12-29T14:50:51.319Z,34.90
2018-12-29T14:53:18.878Z,37.37
2018-12-29T14:55:47.212Z,34.50
2018-12-29T14:58:15.048Z,35.47
2018-12-29T15:00:42.638Z,39.00
2018-12-29T15:03:10.323Z,39.20
2018-12-29T15:05:37.884Z,38.47
2018-12-29T15:08:05.476Z,38.90
2018-12-29T15:10:33.052Z,36.20
2018-12-29T15:13:00.646Z,36.40
2018-12-29T15:15:28.221Z,35.87
2018-12-29T15:17:55.808Z,36.20
2018-12-29T15:20:23.399Z,37.43
2018-12-29T15:22:51.024Z,36.90
2018-12-29T15:25:18.588Z,36.90
2018-12-29T15:27:46.180Z,36.63
2018-12-29T15:30:13.797Z,36.07
2018-12-29T15:32:41.356Z,39.23
2018-12-29T15:35:08.992Z,44.90
2018-12-29T15:37:36.553Z,50.80
2018-12-29T15:40:04.145Z,51.60
2018-12-29T15:42:31.701Z,48.33
2018-12-29T15:44:59.277Z,69.13
2018-12-29T15:47:26.986Z,42.37
2018-12-29T15:49:56.365Z,74.17
2018-12-29T15:52:23.928Z,105.30
2018-12-29T15:54:52.548Z,49.90
2018-12-29T15:57:21.032Z,88.13
2018-12-29T15:59:48.632Z,49.90
2018-12-29T16:02:16.235Z,41.47
2018-12-29T16:04:44.560Z,40.33
2018-12-29T16:07:12.152Z,37.80
2018-12-29T16:09:40.757Z,38.43
2018-12-29T16:12:08.319Z,37.03
2018-12-29T16:14:36.699Z,37.90
2018-12-29T16:17:05.041Z,43.57
2018-12-29T16:19:33.438Z,41.60
2018-12-29T16:22:01.779Z,37.30
2018-12-29T16:24:29.350Z,36.57
2018-12-29T16:26:56.940Z,37.40
2018-12-29T16:29:24.513Z,41.90
2018-12-29T16:31:52.316Z,38.23
2018-12-29T16:34:19.892Z,37.33
2018-12-29T16:36:47.479Z,37.70
2018-12-29T16:39:15.049Z,37.73
2018-12-29T16:41:42.633Z,35.57
2018-12-29T16:44:10.224Z,35.00
2018-12-29T16:46:37.775Z,38.40
2018-12-29T16:49:06.983Z,36.90
2018-12-29T16:51:33.980Z,38.40
2018-12-29T16:54:01.584Z,38.87
2018-12-29T16:56:29.170Z,39.30
2018-12-29T16:58:56.764Z,36.23
2018-12-29T17:01:24.363Z,38.80
2018-12-29T17:03:51.972Z,36.20
2018-12-29T17:06:19.535Z,34.40
2018-12-29T17:08:47.125Z,36.70
2018-12-29T17:11:14.721Z,38.23
2018-12-29T17:13:42.339Z,38.07
2018-12-29T17:16:09.905Z,37.03
2018-12-29T17:18:37.469Z,37.80
2018-12-29T17:21:05.085Z,40.37
2018-12-29T17:23:32.641Z,37.93
2018-12-29T17:26:00.235Z,37.50
2018-12-29T17:28:28.613Z,37.70
2018-12-29T17:30:56.768Z,40.78
2018-12-29T17:33:24.331Z,43.47
2018-12-29T17:35:51.936Z,39.80
2018-12-29T17:38:19.532Z,52.70
2018-12-29T17:40:47.088Z,44.20
2018-12-29T17:43:14.673Z,37.40
2018-12-29T17:45:42.265Z,49.07
2018-12-29T17:48:10.837Z,43.77
2018-12-29T17:50:38.412Z,41.03
2018-12-29T17:53:06.007Z,39.70
2018-12-29T17:55:33.569Z,55.53
2018-12-29T17:58:01.156Z,42.77
2018-12-29T18:00:30.244Z,41.23
2018-12-29T18:05:49.418Z,40.03
2018-12-29T18:08:16.994Z,46.63
2018-12-29T18:10:45.576Z,41.73
2018-12-29T18:13:13.928Z,40.40
2018-12-29T18:15:41.501Z,35.80
2018-12-29T18:18:09.460Z,36.33
2018-12-29T18:20:37.091Z,37.00
2018-12-29T18:23:04.688Z,42.80
2018-12-29T18:25:33.028Z,40.70
2018-12-29T18:28:00.630Z,38.53
2018-12-29T18:30:28.232Z,38.70
2018-12-29T18:32:55.820Z,37.80
2018-12-29T18:35:23.420Z,37.10
2018-12-29T18:37:50.984Z,39.00
2018-12-29T18:40:18.691Z,37.67
2018-12-29T18:42:47.055Z,39.90
2018-12-29T18:45:14.652Z,43.80
2018-12-29T18:47:42.221Z,42.93
2018-12-29T18:50:09.818Z,38.10
2018-12-29T18:52:37.404Z,43.57
2018-12-29T18:55:05.005Z,37.50
2018-12-29T18:57:32.605Z,37.60
2018-12-29T19:00:00.181Z,39.73
2018-12-29T19:02:28.533Z,40.00
2018-12-29T19:04:56.132Z,40.37
2018-12-29T19:07:23.754Z,37.83
2018-12-29T19:09:51.349Z,38.50
2018-12-29T19:12:18.913Z,40.87
2018-12-29T19:14:46.488Z,38.30
2018-12-29T19:17:14.837Z,40.40
2018-12-29T19:19:46.242Z,37.57
2018-12-29T19:22:10.065Z,36.37
2018-12-29T19:24:38.401Z,38.77
2018-12-29T19:27:06.007Z,35.33
2018-12-29T19:29:33.561Z,36.90
2018-12-29T19:32:01.157Z,38.40
2018-12-29T19:34:28.892Z,39.27
2018-12-29T19:36:56.376Z,38.20
2018-12-29T19:39:24.006Z,40.00
2018-12-29T19:41:55.023Z,39.70
2018-12-29T19:44:19.169Z,41.30
2018-12-29T19:46:46.795Z,39.30
2018-12-29T19:49:14.405Z,40.63
2018-12-29T19:51:42.027Z,39.77
2018-12-29T19:54:10.593Z,40.77
2018-12-29T19:56:38.215Z,39.83
2018-12-29T19:59:05.841Z,41.53
2018-12-29T20:01:33.400Z,42.43
2018-12-29T20:04:01.002Z,42.37
2018-12-29T20:06:28.582Z,40.07
2018-12-29T20:08:56.141Z,40.80
2018-12-29T20:11:23.722Z,39.97
2018-12-29T20:13:51.277Z,39.87
2018-12-29T20:16:18.880Z,40.43
2018-12-29T20:18:46.436Z,38.73
2018-12-29T20:21:14.768Z,38.70
2018-12-29T20:23:42.572Z,41.27
2018-12-29T20:26:10.930Z,40.23
2018-12-29T20:28:38.524Z,38.83
2018-12-29T20:31:06.117Z,41.33
2018-12-29T20:33:33.708Z,40.27
2018-12-29T20:36:01.288Z,41.20
2018-12-29T20:38:28.872Z,41.47
2018-12-29T20:40:56.448Z,39.25
2018-12-29T20:43:24.031Z,40.10
2018-12-29T20:45:52.428Z,39.13
2018-12-29T20:48:20.068Z,42.23
2018-12-29T20:50:47.661Z,38.70
2018-12-29T20:53:15.740Z,39.97
2018-12-29T20:55:43.325Z,39.23
2018-12-29T20:58:11.336Z,35.73
2018-12-29T21:00:40.188Z,43.83
2018-12-29T21:03:08.983Z,39.57
2018-12-29T21:05:36.584Z,39.67
2018-12-29T21:08:04.185Z,39.70
2018-12-29T21:10:31.842Z,40.70
2018-12-29T21:12:59.451Z,38.47
2018-12-29T21:15:27.369Z,40.90
2018-12-29T21:17:54.960Z,40.43
2018-12-29T21:20:22.521Z,40.87
2018-12-29T21:22:50.113Z,40.70
2018-12-29T21:25:17.684Z,37.93
2018-12-29T21:27:45.280Z,41.30
2018-12-29T21:30:13.676Z,39.17
2018-12-29T21:32:41.240Z,40.20
2018-12-29T21:35:08.826Z,39.90
2018-12-29T21:37:36.616Z,38.33
2018-12-29T21:40:04.240Z,43.30
2018-12-29T21:42:31.810Z,41.53
2018-12-29T21:44:59.709Z,44.77
2018-12-29T21:47:27.300Z,47.40
2018-12-29T21:49:54.864Z,49.10
2018-12-29T21:52:22.450Z,45.50
2018-12-29T21:54:51.044Z,41.53
2018-12-29T21:57:18.700Z,41.53
2018-12-29T21:59:46.342Z,43.47
2018-12-29T22:02:13.909Z,40.93
2018-12-29T22:04:41.497Z,41.40
2018-12-29T22:07:09.052Z,43.70
2018-12-29T22:09:36.612Z,41.00
2018-12-29T22:12:04.200Z,44.10
2018-12-29T22:14:32.813Z,42.37
2018-12-29T22:17:00.376Z,42.30
2018-12-29T22:19:27.938Z,40.97
2018-12-29T22:21:55.537Z,42.73
2018-12-29T22:24:23.120Z,42.40
2018-12-29T22:26:50.701Z,41.43
2018-12-29T22:29:18.293Z,42.27
2018-12-29T22:31:45.877Z,40.27
2018-12-29T22:34:13.440Z,40.27
2018-12-29T22:36:41.040Z,43.40
2018-12-29T22:39:08.629Z,41.63
2018-12-29T22:41:37.022Z,40.10
2018-12-29T22:44:05.537Z,42.20
2018-12-29T22:46:34.001Z,41.90
2018-12-29T22:49:02.365Z,39.20
2018-12-29T22:51:29.928Z,42.40
2018-12-29T22:53:57.500Z,40.77
2018-12-29T22:56:25.125Z,39.03
2018-12-29T22:58:52.881Z,40.10
2018-12-29T23:01:20.492Z,40.70
2018-12-29T23:03:48.068Z,40.23
2018-12-29T23:06:16.407Z,40.80
2018-12-29T23:08:44.862Z,41.03
2018-12-29T23:11:12.421Z,42.43
2018-12-29T23:13:40.020Z,41.93
2018-12-29T23:16:07.595Z,39.33
2018-12-29T23:18:35.151Z,39.10
2018-12-29T23:21:02.732Z,39.57
2018-12-29T23:23:30.333Z,39.63
2018-12-29T23:25:57.924Z,40.53
2018-12-29T23:28:25.519Z,36.57
2018-12-29T23:30:53.141Z,37.70
2018-12-29T23:33:20.739Z,39.10
2018-12-29T23:35:48.305Z,38.93
2018-12-29T23:38:15.911Z,40.97
2018-12-29T23:40:43.489Z,38.53
2018-12-29T23:43:11.080Z,39.90
2018-12-29T23:45:38.681Z,41.33
2018-12-29T23:48:06.280Z,40.27
2018-12-29T23:50:33.841Z,38.95
2018-12-29T23:53:01.432Z,39.00
2018-12-29T23:55:29.056Z,39.20
2018-12-29T23:57:56.624Z,38.93
